Time;durP1;ratioP1;P1;durP2;ratioP2;P2;SDS_P1;SDS_P2;PMS_P1;PMS_P2;Temp;Humidity;BMP_temperature;BMP_pressure;BME280_temperature;BME280_humidity;BME280_pressure;Samples;Min_cycle;Max_cycle;Signal;HPM_P1;HPM_P2
2022/03/23 00:00:07;;;;;;;18.75;16.48;;;11.40;82.90;;;;;;5086360;28;20759;-58
2022/03/23 00:02:33;;;;;;;22.52;17.73;;;11.40;84.20;;;;;;5072492;28;20785;-56
2022/03/23 00:04:58;;;;;;;23.45;17.45;;;11.40;83.90;;;;;;5071597;28;20431;-58
2022/03/23 00:07:24;;;;;;;22.30;17.97;;;11.30;84.30;;;;;;5091108;28;20381;-58
2022/03/23 00:09:50;;;;;;;21.43;18.07;;;11.30;84.80;;;;;;5073851;28;20428;-58
2022/03/23 00:12:16;;;;;;;22.93;17.00;;;11.20;85.00;;;;;;5075492;28;20484;-58
2022/03/23 00:14:42;;;;;;;20.25;17.30;;;11.10;85.60;;;;;;5073998;28;20402;-57
2022/03/23 00:17:08;;;;;;;26.70;17.60;;;11.10;86.90;;;;;;5073349;28;20533;-58
2022/03/23 00:19:33;;;;;;;21.33;18.00;;;11.20;86.30;;;;;;5075753;28;20443;-57
2022/03/23 00:22:00;;;;;;;22.15;17.70;;;11.10;86.40;;;;;;5072764;28;20766;-54
2022/03/23 00:24:26;;;;;;;22.63;18.27;;;11.10;86.20;;;;;;5071691;28;20382;-56
2022/03/23 00:26:52;;;;;;;20.90;17.73;;;11.00;86.10;;;;;;5072731;28;20405;-57
2022/03/23 00:29:17;;;;;;;24.97;17.67;;;11.00;86.70;;;;;;5091690;28;20417;-55
2022/03/23 00:31:43;;;;;;;23.13;18.85;;;10.90;87.40;;;;;;5074531;28;20386;-58
2022/03/23 00:34:09;;;;;;;22.70;18.58;;;10.90;87.70;;;;;;5074937;28;20386;-55
2022/03/23 00:36:34;;;;;;;23.13;19.50;;;10.80;88.00;;;;;;5076754;28;20401;-58
2022/03/23 00:39:00;;;;;;;22.57;18.37;;;10.80;88.40;;;;;;5075304;28;20830;-58
2022/03/23 00:41:25;;;;;;;23.33;18.73;;;10.70;88.70;;;;;;5096755;28;20747;-55
2022/03/23 00:43:51;;;;;;;22.63;18.93;;;10.70;89.50;;;;;;5078212;28;20386;-58
2022/03/23 00:46:18;;;;;;;23.33;19.00;;;10.60;90.00;;;;;;5095366;28;20405;-51
2022/03/23 00:48:43;;;;;;;21.77;19.02;;;10.60;90.10;;;;;;5096440;28;20455;-55
2022/03/23 00:51:09;;;;;;;24.33;19.23;;;10.60;90.40;;;;;;5079564;28;20805;-55
2022/03/23 00:53:34;;;;;;;24.20;19.47;;;10.60;90.60;;;;;;5078824;28;20381;-55
2022/03/23 00:56:00;;;;;;;24.13;19.80;;;10.60;90.80;;;;;;5077245;28;20476;-58
2022/03/23 00:58:26;;;;;;;22.90;19.25;;;10.50;90.90;;;;;;5077763;28;20414;-58
2022/03/23 01:00:52;;;;;;;21.35;19.05;;;10.50;91.00;;;;;;5076823;28;20463;-56
2022/03/23 01:03:18;;;;;;;24.35;19.55;;;10.40;91.30;;;;;;5078531;28;20782;-58
2022/03/23 01:05:44;;;;;;;24.67;19.70;;;10.40;91.60;;;;;;5078742;28;20382;-57
2022/03/23 01:08:09;;;;;;;22.88;19.45;;;10.40;91.90;;;;;;5093959;28;20514;-56
2022/03/23 01:10:36;;;;;;;25.13;19.50;;;10.30;92.10;;;;;;5070250;28;20670;-57
2022/03/23 01:13:02;;;;;;;25.00;19.98;;;10.30;92.20;;;;;;5059296;28;20411;-57
2022/03/23 01:15:29;;;;;;;24.00;19.73;;;10.30;92.50;;;;;;5058521;28;20445;-57
2022/03/23 01:17:55;;;;;;;27.00;20.95;;;10.20;92.80;;;;;;5075551;28;21036;-59
2022/03/23 01:20:21;;;;;;;23.77;20.10;;;10.20;93.20;;;;;;5056491;28;20475;-58
2022/03/23 01:22:47;;;;;;;26.70;20.17;;;10.10;93.50;;;;;;5055695;28;20387;-59
2022/03/23 01:25:13;;;;;;;24.97;20.77;;;10.10;93.70;;;;;;5073754;28;20372;-59
2022/03/23 01:27:44;;;;;;;25.98;20.75;;;10.10;94.20;;;;;;5056142;28;20905;-59
2022/03/23 01:30:12;;;;;;;28.83;21.13;;;10.10;94.30;;;;;;5056936;28;20649;-59
2022/03/23 01:32:39;;;;;;;25.25;19.20;;;10.10;94.50;;;;;;5057233;28;20465;-57
2022/03/23 01:35:07;;;;;;;27.00;21.40;;;10.00;94.70;;;;;;5058351;28;20481;-57
2022/03/23 01:37:34;;;;;;;28.70;20.75;;;10.00;94.90;;;;;;5076174;28;20386;-59
2022/03/23 01:40:00;;;;;;;25.60;20.30;;;10.00;95.10;;;;;;5058170;28;20437;-59
2022/03/23 01:42:27;;;;;;;23.42;20.38;;;10.00;95.50;;;;;;5057986;28;20566;-59
2022/03/23 01:44:53;;;;;;;26.15;21.13;;;9.90;95.70;;;;;;5072401;28;20372;-59
2022/03/23 01:47:19;;;;;;;27.00;21.97;;;9.90;96.20;;;;;;5056487;28;20535;-59
2022/03/23 01:49:54;;;;;;;25.90;21.00;;;9.80;96.40;;;;;;5057770;28;20384;-59
2022/03/23 01:52:23;;;;;;;25.33;21.13;;;9.80;96.60;;;;;;5057775;28;20387;-58
2022/03/23 01:54:49;;;;;;;24.83;20.92;;;9.70;96.90;;;;;;5057336;28;20411;-56
2022/03/23 01:57:16;;;;;;;23.38;20.13;;;9.70;97.10;;;;;;5056518;28;20380;-59
2022/03/23 01:59:42;;;;;;;25.70;21.42;;;9.60;97.50;;;;;;5074085;28;20404;-56
2022/03/23 02:02:08;;;;;;;27.60;21.25;;;9.60;97.70;;;;;;5054839;28;20426;-59
2022/03/23 02:04:35;;;;;;;23.33;20.65;;;9.50;97.90;;;;;;5054590;28;20414;-59
2022/03/23 02:07:01;;;;;;;25.17;21.10;;;9.50;98.20;;;;;;5071094;28;20473;-59
2022/03/23 02:09:27;;;;;;;25.70;21.00;;;9.50;98.40;;;;;;5073928;28;20391;-59
2022/03/23 02:11:55;;;;;;;24.25;21.08;;;9.50;98.70;;;;;;5056714;28;20457;-59
2022/03/23 02:14:21;;;;;;;25.23;21.07;;;9.50;99.00;;;;;;5057113;28;20627;-59
2022/03/23 02:16:50;;;;;;;25.65;21.92;;;9.40;99.30;;;;;;5055905;28;20476;-59
2022/03/23 02:19:16;;;;;;;23.65;20.92;;;9.40;99.70;;;;;;5056307;28;20390;-56
2022/03/23 02:21:53;;;;;;;25.23;21.73;;;9.40;99.90;;;;;;5072862;28;20410;-57
2022/03/23 02:24:23;;;;;;;25.05;21.17;;;9.30;99.90;;;;;;5072479;28;20785;-59
2022/03/23 02:26:50;;;;;;;26.08;22.02;;;9.30;99.90;;;;;;5055717;28;20380;-59
2022/03/23 02:29:16;;;;;;;24.80;21.42;;;9.20;99.90;;;;;;5054791;28;20376;-59
2022/03/23 02:31:42;;;;;;;24.55;21.33;;;9.20;99.90;;;;;;5075475;28;20398;-59
2022/03/23 02:34:08;;;;;;;24.05;20.90;;;9.20;99.90;;;;;;5074202;28;20392;-57
2022/03/23 02:36:40;;;;;;;24.53;21.43;;;9.20;99.90;;;;;;5055448;28;20443;-58
2022/03/23 02:39:06;;;;;;;29.23;21.55;;;9.10;99.90;;;;;;5072238;28;20772;-58
2022/03/23 02:41:31;;;;;;;26.20;21.10;;;9.10;99.90;;;;;;5072493;28;20387;-59
2022/03/23 02:43:57;;;;;;;24.83;21.17;;;9.10;99.90;;;;;;5055003;28;20396;-59
2022/03/23 02:46:23;;;;;;;25.58;21.98;;;9.10;99.90;;;;;;5055552;28;20468;-59
2022/03/23 02:48:51;;;;;;;24.13;21.08;;;9.00;99.90;;;;;;5056688;28;20407;-59
2022/03/23 02:51:17;;;;;;;27.85;21.50;;;8.90;99.90;;;;;;5057863;28;20648;-59
2022/03/23 03:02:35;;;;;;;25.73;20.75;;;8.80;99.90;;;;;;5071612;28;20457;-57
2022/03/23 03:05:05;;;;;;;25.60;21.85;;;8.80;99.90;;;;;;5054899;28;20391;-58
2022/03/23 03:08:44;;;;;;;26.92;21.30;;;8.70;99.90;;;;;;5071183;28;20391;-58
2022/03/23 03:10:19;;;;;;;23.67;21.17;;;8.70;99.90;;;;;;5072160;28;20389;-58
2022/03/23 03:12:45;;;;;;;27.80;21.73;;;8.70;99.90;;;;;;5053651;28;20792;-58
2022/03/23 03:15:11;;;;;;;23.87;21.20;;;8.70;99.90;;;;;;5053874;28;20403;-58
2022/03/23 03:17:37;;;;;;;24.70;21.65;;;8.70;99.90;;;;;;5054578;28;20660;-58
2022/03/23 03:20:04;;;;;;;26.73;21.40;;;8.70;99.90;;;;;;5055289;28;20414;-58
2022/03/23 03:22:34;;;;;;;27.27;22.00;;;8.60;99.90;;;;;;5056171;28;20436;-58
2022/03/23 03:25:01;;;;;;;25.00;21.67;;;8.50;99.90;;;;;;5072257;28;20652;-58
2022/03/23 03:27:27;;;;;;;24.05;21.45;;;8.50;99.90;;;;;;5054113;28;20682;-57
2022/03/23 03:29:52;;;;;;;26.73;21.70;;;8.50;99.90;;;;;;5054820;28;20783;-58
2022/03/23 03:32:18;;;;;;;25.63;21.80;;;8.50;99.90;;;;;;5054410;28;20676;-58
2022/03/23 03:34:44;;;;;;;25.88;22.23;;;8.40;99.90;;;;;;5055249;28;20411;-58
2022/03/23 03:37:09;;;;;;;25.67;21.23;;;8.40;99.90;;;;;;5053652;28;20747;-57
2022/03/23 03:39:35;;;;;;;25.45;22.45;;;8.40;99.90;;;;;;5055381;28;20661;-56
2022/03/23 03:42:01;;;;;;;26.58;22.27;;;8.30;99.90;;;;;;5056748;28;20936;-58
2022/03/23 03:44:27;;;;;;;26.17;21.48;;;8.40;99.90;;;;;;5056825;28;20383;-58
2022/03/23 03:46:52;;;;;;;25.50;22.45;;;8.40;99.90;;;;;;5057716;28;20399;-58
2022/03/23 03:49:18;;;;;;;25.60;21.88;;;8.30;99.90;;;;;;5074480;28;20470;-57
2022/03/23 03:51:44;;;;;;;24.53;21.27;;;8.20;99.90;;;;;;5073816;28;20387;-56
2022/03/23 03:54:11;;;;;;;25.13;22.10;;;8.20;99.90;;;;;;5054530;28;20418;-57
2022/03/23 03:56:36;;;;;;;29.50;22.88;;;8.20;99.90;;;;;;5074303;28;20403;-58
2022/03/23 03:59:02;;;;;;;26.25;23.45;;;8.20;99.90;;;;;;5056823;28;20434;-58
2022/03/23 04:01:28;;;;;;;27.10;22.13;;;8.10;99.90;;;;;;5056734;28;20399;-58
2022/03/23 04:03:53;;;;;;;28.73;22.00;;;8.20;99.90;;;;;;5074918;28;20418;-57
2022/03/23 04:06:20;;;;;;;25.43;22.07;;;8.20;99.90;;;;;;5055754;28;20788;-56
2022/03/23 04:08:45;;;;;;;27.60;21.90;;;8.10;99.90;;;;;;5055413;28;20383;-58
2022/03/23 04:11:11;;;;;;;25.73;23.02;;;8.10;99.90;;;;;;5056587;28;20487;-58
2022/03/23 04:13:37;;;;;;;26.05;22.05;;;8.10;99.90;;;;;;5074382;28;20375;-58
2022/03/23 04:16:03;;;;;;;25.50;21.93;;;8.10;99.90;;;;;;5073036;28;20427;-57
2022/03/23 04:18:28;;;;;;;25.60;21.97;;;8.10;99.90;;;;;;5072909;28;20768;-58
2022/03/23 04:20:58;;;;;;;26.80;22.23;;;8.00;99.90;;;;;;5055768;28;20732;-58
2022/03/23 04:23:24;;;;;;;27.08;22.98;;;7.90;99.90;;;;;;5055471;28;20395;-56
2022/03/23 04:25:49;;;;;;;25.30;22.53;;;7.90;99.90;;;;;;5055368;28;20467;-56
2022/03/23 04:28:15;;;;;;;26.27;22.45;;;7.80;99.90;;;;;;5054556;28;20388;-58
2022/03/23 04:30:41;;;;;;;26.85;22.67;;;7.80;99.90;;;;;;5054547;28;20795;-59
2022/03/23 04:33:07;;;;;;;27.80;22.50;;;7.80;99.90;;;;;;5072100;28;20398;-58
2022/03/23 04:35:33;;;;;;;28.25;23.55;;;7.80;99.90;;;;;;5054600;28;20673;-56
2022/03/23 04:37:59;;;;;;;28.77;23.02;;;7.90;99.90;;;;;;5053334;28;20721;-58
2022/03/23 04:40:25;;;;;;;26.70;22.52;;;7.90;99.90;;;;;;5055156;28;20796;-58
2022/03/23 04:42:51;;;;;;;27.25;23.30;;;7.80;99.90;;;;;;5053862;28;20868;-56
2022/03/23 04:45:17;;;;;;;24.63;21.88;;;7.80;99.90;;;;;;5055929;28;20490;-57
2022/03/23 04:47:44;;;;;;;25.30;22.02;;;7.90;99.90;;;;;;5076532;28;20449;-59
2022/03/23 04:50:11;;;;;;;25.88;22.95;;;7.80;99.90;;;;;;5076707;28;20389;-58
2022/03/23 04:52:39;;;;;;;25.90;22.52;;;7.80;99.90;;;;;;5058380;28;20431;-59
2022/03/23 04:55:20;;;;;;;26.15;22.55;;;7.80;99.90;;;;;;5057666;28;20399;-58
2022/03/23 04:57:46;;;;;;;26.73;23.08;;;7.70;99.90;;;;;;5056237;28;20386;-59
2022/03/23 05:00:15;;;;;;;26.23;22.63;;;7.70;99.90;;;;;;5057215;28;20684;-59
2022/03/23 05:02:42;;;;;;;26.83;23.10;;;7.60;99.90;;;;;;5075057;28;20481;-59
2022/03/23 05:05:11;;;;;;;24.85;22.15;;;7.60;99.90;;;;;;5055133;28;20799;-57
2022/03/23 05:07:38;;;;;;;25.95;22.17;;;7.60;99.90;;;;;;5072153;28;20399;-58
2022/03/23 05:10:05;;;;;;;26.65;23.13;;;7.50;99.90;;;;;;5054937;28;20383;-57
2022/03/23 05:12:30;;;;;;;27.37;22.97;;;7.50;99.90;;;;;;5073220;28;20421;-56
2022/03/23 05:14:56;;;;;;;25.73;22.63;;;7.50;99.90;;;;;;5072800;28;20403;-55
2022/03/23 05:17:21;;;;;;;30.08;23.45;;;7.50;99.90;;;;;;5053993;28;20486;-57
2022/03/23 05:19:47;;;;;;;27.23;22.87;;;7.50;99.90;;;;;;5053002;28;20442;-59
2022/03/23 05:22:13;;;;;;;26.87;23.17;;;7.50;99.90;;;;;;5054283;28;20822;-58
2022/03/23 05:24:40;;;;;;;27.08;23.17;;;7.50;99.90;;;;;;5055795;28;20564;-59
2022/03/23 05:27:06;;;;;;;26.95;23.50;;;7.40;99.90;;;;;;5073576;28;20386;-58
2022/03/23 05:29:32;;;;;;;26.75;23.25;;;7.40;99.90;;;;;;5057965;28;20794;-57
2022/03/23 05:31:59;;;;;;;26.52;23.63;;;7.40;99.90;;;;;;5073191;28;20395;-59
2022/03/23 05:34:24;;;;;;;27.98;22.80;;;7.40;99.90;;;;;;5055833;28;20387;-58
2022/03/23 05:36:50;;;;;;;25.98;22.58;;;7.40;99.90;;;;;;5072187;28;20380;-58
2022/03/23 05:39:16;;;;;;;27.80;23.30;;;7.40;99.90;;;;;;5055454;28;20388;-59
2022/03/23 05:41:42;;;;;;;31.17;24.43;;;7.40;99.90;;;;;;5053325;28;21052;-59
2022/03/23 05:44:07;;;;;;;28.70;23.70;;;7.40;99.90;;;;;;5051755;28;20383;-59
2022/03/23 05:46:33;;;;;;;27.73;23.50;;;7.40;99.90;;;;;;5070435;28;20395;-57
2022/03/23 05:48:59;;;;;;;28.77;24.17;;;7.40;99.90;;;;;;5069272;28;20784;-59
2022/03/23 05:51:37;;;;;;;28.80;23.37;;;7.40;99.90;;;;;;5068820;28;20453;-59
2022/03/23 05:54:02;;;;;;;29.33;24.02;;;7.30;99.90;;;;;;5050270;28;20783;-59
2022/03/23 05:56:28;;;;;;;32.03;23.40;;;7.40;99.90;;;;;;5049317;28;20407;-59
2022/03/23 05:58:54;;;;;;;28.85;23.98;;;7.40;99.90;;;;;;5048148;28;20396;-58
2022/03/23 06:01:20;;;;;;;29.30;24.13;;;7.40;99.90;;;;;;5063739;28;20736;-58
2022/03/23 06:03:49;;;;;;;27.07;23.80;;;7.40;99.90;;;;;;5047122;28;20394;-58
2022/03/23 06:06:15;;;;;;;27.90;23.65;;;7.40;99.90;;;;;;5044249;28;20606;-59
2022/03/23 06:08:41;;;;;;;32.33;24.95;;;7.50;99.90;;;;;;5050346;28;20410;-55
2022/03/23 06:11:06;;;;;;;29.77;24.05;;;7.50;99.90;;;;;;5050515;28;20672;-59
2022/03/23 06:13:32;;;;;;;29.00;25.33;;;7.50;99.90;;;;;;5049722;28;20450;-59
2022/03/23 06:15:57;;;;;;;29.57;23.87;;;7.40;99.90;;;;;;5051010;28;20489;-59
2022/03/23 06:18:23;;;;;;;27.33;23.83;;;7.50;99.90;;;;;;5049424;28;20415;-59
2022/03/23 06:20:49;;;;;;;28.13;23.42;;;7.50;99.90;;;;;;5050856;28;20384;-58
2022/03/23 06:23:15;;;;;;;29.55;24.58;;;7.50;99.90;;;;;;5051670;28;20403;-59
2022/03/23 06:25:40;;;;;;;28.90;24.35;;;7.60;99.90;;;;;;5068913;28;20380;-59
2022/03/23 06:28:06;;;;;;;27.93;24.17;;;7.60;99.90;;;;;;5053147;28;20407;-59
2022/03/23 06:30:31;;;;;;;28.47;24.60;;;7.60;99.90;;;;;;5053602;28;20903;-59
2022/03/23 06:32:57;;;;;;;31.20;24.67;;;7.60;99.90;;;;;;5053484;28;20684;-59
2022/03/23 06:35:24;;;;;;;29.20;24.03;;;7.70;99.90;;;;;;5069905;28;20654;-57
2022/03/23 06:37:52;;;;;;;29.77;23.80;;;7.70;99.90;;;;;;5055439;28;20449;-59
2022/03/23 06:40:20;;;;;;;26.87;23.73;;;7.70;99.90;;;;;;5072735;28;20556;-59
2022/03/23 06:42:46;;;;;;;31.10;24.20;;;7.80;99.90;;;;;;5052039;28;20386;-59
2022/03/23 06:45:12;;;;;;;26.73;23.20;;;7.80;99.90;;;;;;5047681;28;20710;-57
2022/03/23 06:47:37;;;;;;;28.77;24.23;;;7.90;99.90;;;;;;5049157;28;20390;-59
2022/03/23 06:50:04;;;;;;;28.70;23.80;;;7.90;99.90;;;;;;5047376;28;20476;-59
2022/03/23 06:52:29;;;;;;;30.20;24.50;;;8.00;99.90;;;;;;5044240;28;20384;-59
2022/03/23 06:54:55;;;;;;;28.00;23.33;;;8.00;99.90;;;;;;5048054;28;21009;-59
2022/03/23 06:57:21;;;;;;;27.58;23.38;;;8.10;99.90;;;;;;5065305;28;20383;-58
2022/03/23 06:59:46;;;;;;;28.00;22.55;;;8.20;99.90;;;;;;5048034;28;20376;-58
2022/03/23 07:02:13;;;;;;;26.75;22.02;;;8.20;99.90;;;;;;5066604;28;20399;-59
2022/03/23 07:04:39;;;;;;;27.60;22.98;;;8.30;99.90;;;;;;5048061;28;20386;-59
2022/03/23 07:07:05;;;;;;;25.75;22.52;;;8.30;99.90;;;;;;5066671;28;20379;-59
2022/03/23 07:09:31;;;;;;;25.10;22.40;;;8.30;99.90;;;;;;5047449;28;20388;-59
2022/03/23 07:11:59;;;;;;;27.15;22.45;;;8.40;99.90;;;;;;5049384;28;20380;-58
2022/03/23 07:14:25;;;;;;;25.23;21.48;;;8.50;99.90;;;;;;5048500;28;20387;-58
2022/03/23 07:16:51;;;;;;;26.92;21.92;;;8.50;99.90;;;;;;5065159;28;21173;-58
2022/03/23 07:19:17;;;;;;;26.37;22.17;;;8.50;99.90;;;;;;5047052;28;20390;-59
2022/03/23 07:21:42;;;;;;;26.42;21.92;;;8.60;99.90;;;;;;5044788;28;20406;-58
2022/03/23 07:24:11;;;;;;;22.08;19.77;;;8.70;99.90;;;;;;5046387;28;20384;-57
2022/03/23 07:26:37;;;;;;;22.35;19.95;;;8.70;99.90;;;;;;5047891;28;20503;-59
2022/03/23 07:29:03;;;;;;;22.02;19.17;;;8.80;99.90;;;;;;5050209;28;20392;-59
2022/03/23 07:31:29;;;;;;;21.88;19.58;;;8.90;99.90;;;;;;5052547;28;20396;-59
2022/03/23 07:33:57;;;;;;;22.30;19.52;;;9.00;99.90;;;;;;5049226;28;20668;-59
2022/03/23 07:36:24;;;;;;;23.75;19.40;;;9.10;99.90;;;;;;5068413;28;20498;-58
2022/03/23 07:38:50;;;;;;;21.77;19.42;;;9.10;99.90;;;;;;5051965;28;20962;-58
2022/03/23 07:41:16;;;;;;;21.67;18.63;;;9.20;99.90;;;;;;5050364;28;20410;-57
2022/03/23 07:43:42;;;;;;;23.07;18.73;;;9.30;99.90;;;;;;5048911;28;20399;-55
2022/03/23 07:46:08;;;;;;;20.33;18.13;;;9.40;99.90;;;;;;5046553;28;20484;-52
2022/03/23 07:48:34;;;;;;;21.40;18.23;;;9.40;99.90;;;;;;5050030;28;20495;-56
2022/03/23 07:51:00;;;;;;;20.20;17.90;;;9.50;99.90;;;;;;5048414;28;20483;-59
2022/03/23 07:53:26;;;;;;;20.45;18.27;;;9.50;99.90;;;;;;5048238;28;20384;-57
2022/03/23 07:55:52;;;;;;;19.25;17.20;;;9.60;99.90;;;;;;5047287;28;20841;-59
2022/03/23 07:58:17;;;;;;;21.02;17.98;;;9.60;99.90;;;;;;5048105;28;20815;-59
2022/03/23 08:00:45;;;;;;;20.80;18.60;;;9.70;99.90;;;;;;5052117;28;20679;-59
2022/03/23 08:03:11;;;;;;;19.85;17.52;;;9.80;99.90;;;;;;5050976;28;20694;-59
2022/03/23 08:05:40;;;;;;;20.75;17.80;;;9.80;99.90;;;;;;5065606;28;20426;-59
2022/03/23 08:08:09;;;;;;;21.17;17.85;;;9.90;99.90;;;;;;5066610;28;20379;-58
2022/03/23 08:10:36;;;;;;;20.33;17.17;;;10.00;99.90;;;;;;5050354;28;20379;-57
2022/03/23 08:13:02;;;;;;;19.52;17.38;;;10.10;99.90;;;;;;5068947;28;20939;-59
2022/03/23 08:15:29;;;;;;;20.95;17.20;;;10.20;99.90;;;;;;5065602;28;20794;-59
2022/03/23 08:17:59;;;;;;;19.30;16.90;;;10.20;99.90;;;;;;5046067;28;20421;-60
2022/03/23 08:20:33;;;;;;;18.77;16.77;;;10.30;99.90;;;;;;5030843;28;20382;-60
2022/03/23 08:23:10;;;;;;;19.63;16.77;;;10.40;99.90;;;;;;5052199;28;20392;-60
2022/03/23 08:25:41;;;;;;;19.33;17.08;;;10.40;99.90;;;;;;5051382;28;20391;-60
2022/03/23 08:28:09;;;;;;;20.80;17.23;;;10.50;99.90;;;;;;5068173;28;20760;-59
2022/03/23 08:30:36;;;;;;;21.80;17.63;;;10.50;99.90;;;;;;5067295;28;20587;-59
2022/03/23 08:33:02;;;;;;;18.45;15.70;;;10.60;99.90;;;;;;5067692;28;20422;-57
2022/03/23 08:35:29;;;;;;;21.13;17.20;;;10.70;99.90;;;;;;5068850;28;20399;-59
2022/03/23 08:37:55;;;;;;;16.98;15.18;;;10.70;99.70;;;;;;5068916;28;20388;-60
2022/03/23 08:40:21;;;;;;;20.05;15.85;;;10.90;99.20;;;;;;5069518;28;20563;-60
2022/03/23 08:42:47;;;;;;;14.90;13.00;;;11.00;99.10;;;;;;5067939;28;20600;-58
2022/03/23 08:45:15;;;;;;;18.13;14.00;;;11.00;98.90;;;;;;5069160;28;20423;-59
2022/03/23 08:47:41;;;;;;;18.52;14.75;;;11.00;98.70;;;;;;5065605;28;20703;-59
2022/03/23 08:50:09;;;;;;;16.23;14.52;;;11.10;98.00;;;;;;5063904;28;20415;-59
2022/03/23 08:52:36;;;;;;;14.63;13.03;;;11.20;97.70;;;;;;5041506;28;20404;-59
2022/03/23 08:55:03;;;;;;;14.00;12.50;;;11.30;97.80;;;;;;5029176;28;20686;-57
2022/03/23 08:57:29;;;;;;;14.45;12.80;;;11.40;97.70;;;;;;5047312;28;20392;-60
2022/03/23 08:59:55;;;;;;;17.05;14.63;;;11.40;98.20;;;;;;5030029;28;20381;-59
2022/03/23 09:02:20;;;;;;;15.70;14.00;;;11.50;97.00;;;;;;5029897;28;20777;-56
2022/03/23 09:04:46;;;;;;;15.57;13.97;;;11.50;96.70;;;;;;5048576;28;20936;-59
2022/03/23 09:07:17;;;;;;;14.27;12.88;;;11.60;96.80;;;;;;5050191;28;20443;-59
2022/03/23 09:09:47;;;;;;;17.48;14.57;;;11.70;96.90;;;;;;5050026;28;20852;-57
2022/03/23 09:12:14;;;;;;;15.97;13.97;;;11.70;96.70;;;;;;5035787;28;20971;-56
2022/03/23 09:14:41;;;;;;;16.70;14.98;;;11.70;96.70;;;;;;5035760;28;20394;-59
2022/03/23 09:17:08;;;;;;;16.33;14.63;;;11.80;96.20;;;;;;5043940;28;20408;-58
2022/03/23 09:19:35;;;;;;;14.00;12.50;;;11.90;96.20;;;;;;5055079;28;20453;-56
2022/03/23 09:22:02;;;;;;;14.68;12.40;;;11.90;96.30;;;;;;5054597;28;20411;-57
2022/03/23 09:24:29;;;;;;;14.87;12.93;;;11.90;96.60;;;;;;5072512;28;20390;-56
2022/03/23 09:26:56;;;;;;;14.27;12.77;;;12.00;96.80;;;;;;5054032;28;20663;-61
2022/03/23 09:29:23;;;;;;;13.27;11.70;;;12.10;96.70;;;;;;5070783;28;20376;-55
2022/03/23 09:31:49;;;;;;;12.07;10.90;;;12.20;98.60;;;;;;5050914;28;20702;-57
2022/03/23 09:34:18;;;;;;;13.75;12.13;;;12.30;98.80;;;;;;5069528;28;20413;-55
2022/03/23 09:39:30;;;;;;;14.77;13.15;;;12.40;95.80;;;;;;5068354;28;20457;-57
2022/03/23 09:42:03;;;;;;;13.43;12.13;;;12.50;95.00;;;;;;5050301;28;20957;-59
2022/03/23 09:44:31;;;;;;;13.83;11.80;;;12.50;95.20;;;;;;5049025;28;20384;-57
2022/03/23 09:46:59;;;;;;;14.57;12.07;;;12.50;95.50;;;;;;5048011;28;20559;-58
2022/03/23 09:49:26;;;;;;;14.57;12.85;;;12.60;95.50;;;;;;5048940;28;20384;-58
2022/03/23 09:51:53;;;;;;;14.05;12.50;;;12.70;94.20;;;;;;5048703;28;20394;-59
2022/03/23 09:54:21;;;;;;;13.27;11.85;;;12.70;93.40;;;;;;5069061;28;20385;-59
2022/03/23 09:56:49;;;;;;;12.80;11.48;;;12.70;92.60;;;;;;5050471;28;20435;-58
2022/03/23 09:59:16;;;;;;;12.70;11.40;;;12.80;93.40;;;;;;5052528;28;20811;-59
2022/03/23 10:01:49;;;;;;;14.30;12.80;;;12.80;94.80;;;;;;5052538;28;20470;-58
2022/03/23 10:04:17;;;;;;;14.85;12.82;;;13.00;93.50;;;;;;5053095;28;20406;-57
2022/03/23 10:07:09;;;;;;;14.25;12.73;;;13.00;93.80;;;;;;5054169;28;20395;-59
2022/03/23 10:10:12;;;;;;;14.02;12.55;;;13.10;93.50;;;;;;5072267;28;20790;-58
2022/03/23 10:13:30;;;;;;;15.20;13.45;;;13.20;93.40;;;;;;5072240;28;20393;-59
2022/03/23 10:16:19;;;;;;;14.88;13.27;;;13.30;91.00;;;;;;5053764;28;20404;-59
2022/03/23 10:19:00;;;;;;;15.15;12.65;;;13.40;91.10;;;;;;5051434;28;20916;-58
2022/03/23 10:21:31;;;;;;;16.88;12.82;;;13.40;91.90;;;;;;5052182;28;20459;-59
2022/03/23 10:24:03;;;;;;;14.35;12.82;;;13.50;91.70;;;;;;5050482;28;20382;-59
2022/03/23 10:26:31;;;;;;;17.45;13.55;;;13.60;92.70;;;;;;5049512;28;20384;-59
2022/03/23 10:28:59;;;;;;;15.55;13.82;;;13.60;91.80;;;;;;5035875;28;20389;-59
2022/03/23 10:31:26;;;;;;;20.58;14.57;;;13.70;91.70;;;;;;5035539;28;20863;-59
2022/03/23 10:34:08;;;;;;;15.75;14.13;;;13.80;91.80;;;;;;5050680;28;20389;-59
2022/03/23 10:36:43;;;;;;;16.10;13.05;;;13.80;91.60;;;;;;5032306;28;21056;-57
2022/03/23 10:39:12;;;;;;;18.25;13.30;;;13.80;92.30;;;;;;5034408;28;20417;-58
2022/03/23 10:41:39;;;;;;;18.15;13.90;;;13.90;91.70;;;;;;5051120;28;20385;-59
2022/03/23 10:44:16;;;;;;;15.77;14.05;;;14.00;90.90;;;;;;5047731;28;20403;-59
2022/03/23 10:46:43;;;;;;;14.60;12.77;;;14.00;90.90;;;;;;5051203;28;20400;-58
2022/03/23 10:49:10;;;;;;;13.75;12.30;;;14.30;91.70;;;;;;5051962;28;20393;-59
2022/03/23 10:51:37;;;;;;;13.63;11.88;;;14.60;92.40;;;;;;5051438;28;21048;-59
2022/03/23 10:54:21;;;;;;;18.75;14.02;;;15.00;92.50;;;;;;5033202;28;20393;-55
2022/03/23 10:56:47;;;;;;;13.35;11.98;;;15.40;90.70;;;;;;5051411;28;20511;-59
2022/03/23 10:59:22;;;;;;;12.88;11.57;;;15.70;90.40;;;;;;5051513;28;20468;-58
2022/03/23 11:01:59;;;;;;;12.07;10.77;;;16.00;90.60;;;;;;5031141;28;20853;-58
2022/03/23 11:04:29;;;;;;;15.23;13.00;;;16.40;91.10;;;;;;5033062;28;20868;-59
2022/03/23 11:06:58;;;;;;;14.00;12.60;;;16.50;90.20;;;;;;5050930;28;20859;-59
2022/03/23 11:18:08;;;;;;;15.07;13.32;;;17.00;87.10;;;;;;5050463;28;20490;-57
2022/03/23 11:20:51;;;;;;;13.63;11.98;;;17.20;87.10;;;;;;5035416;28;20390;-54
2022/03/23 11:23:33;;;;;;;17.80;13.77;;;17.50;88.80;;;;;;5051830;28;20381;-59
2022/03/23 11:26:07;;;;;;;18.63;14.90;;;17.80;90.40;;;;;;5034078;28;20409;-57
2022/03/23 11:28:39;;;;;;;16.38;13.20;;;17.90;89.30;;;;;;5052178;28;20425;-57
2022/03/23 11:31:07;;;;;;;15.00;11.65;;;18.20;90.40;;;;;;5033767;28;20409;-59
2022/03/23 11:33:35;;;;;;;14.65;12.77;;;18.40;89.50;;;;;;5032233;28;20385;-57
2022/03/23 11:36:10;;;;;;;20.27;15.07;;;18.50;87.80;;;;;;5032211;28;20413;-57
2022/03/23 11:38:38;;;;;;;15.63;13.27;;;18.60;88.50;;;;;;5033296;28;20420;-57
2022/03/23 11:41:06;;;;;;;19.52;15.15;;;18.60;87.90;;;;;;5050554;28;20389;-59
2022/03/23 11:43:34;;;;;;;16.88;13.30;;;18.80;87.10;;;;;;5048916;28;20464;-58
2022/03/23 11:46:01;;;;;;;14.13;12.32;;;18.90;88.30;;;;;;5031289;28;20476;-57
2022/03/23 11:49:25;;;;;;;11.52;10.10;;;19.10;89.60;;;;;;5030880;28;20381;-57
2022/03/23 11:52:16;;;;;;;20.98;15.23;;;19.50;95.50;;;;;;4948615;29;20393;-59
2022/03/23 11:57:54;;;;;;;15.80;12.20;;;19.70;96.00;;;;;;4947299;29;21144;-57
2022/03/23 12:00:25;;;;;;;11.57;10.38;;;19.90;96.00;;;;;;4936046;28;20401;-59
2022/03/23 12:02:51;;;;;;;13.25;11.02;;;20.20;95.70;;;;;;4935542;29;20436;-58
2022/03/23 12:05:31;;;;;;;16.85;12.90;;;20.40;95.10;;;;;;4934194;29;20761;-57
2022/03/23 12:07:58;;;;;;;14.93;13.07;;;20.40;94.60;;;;;;4949319;29;20413;-59
2022/03/23 12:10:28;;;;;;;16.73;13.30;;;20.40;93.40;;;;;;5010618;28;20483;-58
2022/03/23 12:12:55;;;;;;;20.90;14.70;;;20.40;93.90;;;;;;5052172;28;20391;-57
2022/03/23 12:15:26;;;;;;;16.52;14.05;;;20.50;93.70;;;;;;5035094;28;20453;-59
2022/03/23 12:18:03;;;;;;;13.27;11.30;;;20.50;91.60;;;;;;5067267;28;20901;-59
2022/03/23 12:20:33;;;;;;;20.63;16.38;;;20.70;92.00;;;;;;5057492;28;20549;-59
2022/03/23 12:23:14;;;;;;;13.27;11.98;;;20.50;88.40;;;;;;5058801;28;20399;-58
2022/03/23 12:26:02;;;;;;;16.98;14.07;;;20.80;88.40;;;;;;5058443;28;20395;-59
2022/03/23 12:28:32;;;;;;;18.55;13.75;;;20.90;85.00;;;;;;5061578;28;20441;-59
2022/03/23 12:31:09;;;;;;;13.15;11.80;;;21.00;84.90;;;;;;5093738;28;20386;-58
2022/03/23 12:33:59;;;;;;;16.08;13.18;;;21.30;85.70;;;;;;5078036;28;20416;-59
2022/03/23 12:39:24;;;;;;;13.30;11.40;;;21.50;81.90;;;;;;5093332;28;20385;-59
2022/03/23 12:41:52;;;;;;;13.63;11.48;;;21.70;81.10;;;;;;5076460;28;20475;-57
2022/03/23 12:44:30;;;;;;;19.25;12.70;;;21.80;81.00;;;;;;5074487;28;20378;-56
2022/03/23 12:47:05;;;;;;;20.13;14.23;;;22.00;79.60;;;;;;5075214;28;20378;-63
2022/03/23 12:58:18;;;;;;;17.10;14.25;;;22.30;75.80;;;;;;5074845;28;21087;-59
2022/03/23 13:00:48;;;;;;;18.33;15.90;;;22.30;74.10;;;;;;5074220;28;20407;-59
2022/03/23 13:03:33;;;;;;;21.30;16.73;;;22.50;71.60;;;;;;5074014;28;20390;-59
2022/03/23 13:06:07;;;;;;;15.75;13.80;;;22.40;71.60;;;;;;5073390;28;20394;-59
2022/03/23 13:08:51;;;;;;;15.30;13.25;;;22.60;72.50;;;;;;5072516;28;20420;-59
2022/03/23 13:11:26;;;;;;;18.80;15.82;;;23.10;73.30;;;;;;5056778;28;20413;-58